createdAt,value
2018-03-22T00:00:57.392Z,2.90
2018-03-22T00:01:57.386Z,2.90
2018-03-22T00:02:57.390Z,2.91
2018-03-22T00:03:57.407Z,2.91
2018-03-22T00:04:57.408Z,2.93
2018-03-22T00:05:57.396Z,2.93
2018-03-22T00:06:57.415Z,2.93
2018-03-22T00:07:57.402Z,2.94
2018-03-22T00:08:57.408Z,2.96
2018-03-22T00:09:57.405Z,2.97
2018-03-22T00:10:57.406Z,2.97
2018-03-22T00:11:57.412Z,2.97
2018-03-22T00:12:57.412Z,2.99
2018-03-22T00:13:57.418Z,2.99
2018-03-22T00:14:57.410Z,2.99
2018-03-22T00:15:58.443Z,2.99
2018-03-22T00:16:57.421Z,2.99
2018-03-22T00:17:57.432Z,2.99
2018-03-22T00:18:57.416Z,2.99
2018-03-22T00:19:57.417Z,2.99
2018-03-22T00:20:57.425Z,2.99
2018-03-22T00:21:57.418Z,2.99
2018-03-22T00:22:57.427Z,2.97
2018-03-22T00:23:57.419Z,2.97
2018-03-22T00:24:57.430Z,2.96
2018-03-22T00:25:57.426Z,2.94
2018-03-22T00:26:57.427Z,2.96
2018-03-22T00:27:57.433Z,2.94
2018-03-22T00:28:57.436Z,2.96
2018-03-22T00:29:57.435Z,2.94
2018-03-22T00:30:57.434Z,2.96
2018-03-22T00:31:57.441Z,2.94
2018-03-22T00:32:57.452Z,2.93
2018-03-22T00:33:57.448Z,2.94
2018-03-22T00:34:57.441Z,2.96
2018-03-22T00:35:57.442Z,2.96
2018-03-22T00:36:57.465Z,2.96
2018-03-22T00:37:57.443Z,2.96
2018-03-22T00:38:57.471Z,2.96
2018-03-22T00:39:57.452Z,2.94
2018-03-22T00:40:57.446Z,2.94
2018-03-22T00:41:57.448Z,2.94
2018-03-22T00:42:57.471Z,2.96
2018-03-22T00:43:57.460Z,2.96
2018-03-22T00:44:57.451Z,2.96
2018-03-22T00:45:57.526Z,2.96
2018-03-22T00:46:57.468Z,2.94
2018-03-22T00:47:57.457Z,2.96
2018-03-22T00:48:57.464Z,2.96
2018-03-22T00:49:57.553Z,2.94
2018-03-22T00:50:57.470Z,2.96
2018-03-22T00:51:57.564Z,2.96
2018-03-22T00:52:57.469Z,2.94
2018-03-22T00:53:57.577Z,2.96
2018-03-22T00:54:57.481Z,2.96
2018-03-22T00:55:58.516Z,2.97
2018-03-22T00:56:57.469Z,2.97
2018-03-22T00:57:57.488Z,2.97
2018-03-22T00:58:57.509Z,2.97
2018-03-22T00:59:57.481Z,2.99
2018-03-22T01:00:57.472Z,2.99
2018-03-22T01:01:57.477Z,3.00
2018-03-22T01:02:57.480Z,3.00
2018-03-22T01:03:57.479Z,3.00
2018-03-22T01:04:57.486Z,3.00
2018-03-22T01:05:57.489Z,3.00
2018-03-22T01:06:57.484Z,3.00
2018-03-22T01:07:57.567Z,3.02
2018-03-22T01:08:57.494Z,2.99
2018-03-22T01:09:57.494Z,3.00
2018-03-22T01:10:57.498Z,2.99
2018-03-22T01:11:57.492Z,3.00
2018-03-22T01:12:57.498Z,3.00
2018-03-22T01:13:57.505Z,3.00
2018-03-22T01:14:57.503Z,3.00
2018-03-22T01:15:57.500Z,2.99
2018-03-22T01:16:57.503Z,2.97
2018-03-22T01:17:57.499Z,2.97
2018-03-22T01:18:57.520Z,2.97
2018-03-22T01:19:57.510Z,2.97
2018-03-22T01:20:57.515Z,2.96
2018-03-22T01:21:57.562Z,2.96
2018-03-22T01:22:57.510Z,2.94
2018-03-22T01:23:57.577Z,2.96
2018-03-22T01:24:57.525Z,2.96
2018-03-22T01:25:57.620Z,2.94
2018-03-22T01:26:57.521Z,2.94
2018-03-22T01:27:57.632Z,2.93
2018-03-22T01:28:57.522Z,2.93
2018-03-22T01:29:58.553Z,2.91
2018-03-22T01:30:57.522Z,2.93
2018-03-22T01:31:57.525Z,2.93
2018-03-22T01:32:57.521Z,2.93
2018-03-22T01:33:57.528Z,2.93
2018-03-22T01:34:57.529Z,2.93
2018-03-22T01:35:57.536Z,2.93
2018-03-22T01:36:58.624Z,2.93
2018-03-22T01:37:57.542Z,2.94
2018-03-22T01:38:57.532Z,2.94
2018-03-22T01:39:57.540Z,2.97
2018-03-22T01:40:57.532Z,2.96
2018-03-22T01:41:57.535Z,2.97
2018-03-22T01:42:57.617Z,2.97
2018-03-22T01:43:57.540Z,2.99
2018-03-22T01:44:57.543Z,2.97
2018-03-22T01:45:57.547Z,2.97
2018-03-22T01:46:57.593Z,2.97
2018-03-22T01:47:57.547Z,2.99
2018-03-22T01:48:57.558Z,2.99
2018-03-22T01:49:57.560Z,2.99
2018-03-22T01:50:57.574Z,3.00
2018-03-22T01:51:57.563Z,3.00
2018-03-22T01:52:57.558Z,3.02
2018-03-22T01:53:57.561Z,2.99
2018-03-22T01:54:57.560Z,3.00
2018-03-22T01:55:57.551Z,3.00
2018-03-22T01:56:57.558Z,3.00
2018-03-22T01:57:57.564Z,3.00
2018-03-22T01:58:57.630Z,3.02
2018-03-22T01:59:57.560Z,3.02
2018-03-22T02:00:57.644Z,3.04
2018-03-22T02:01:57.564Z,3.04
2018-03-22T02:02:57.562Z,3.04
2018-03-22T02:03:57.664Z,3.05
2018-03-22T02:04:57.577Z,3.04
2018-03-22T02:05:57.677Z,3.04
2018-03-22T02:06:57.571Z,3.05
2018-03-22T02:07:57.576Z,3.05
2018-03-22T02:08:57.580Z,3.05
2018-03-22T02:09:57.576Z,3.05
2018-03-22T02:10:57.606Z,3.08
2018-03-22T02:11:57.581Z,3.07
2018-03-22T02:12:57.585Z,3.07
2018-03-22T02:13:57.584Z,3.08
2018-03-22T02:14:57.589Z,3.08
2018-03-22T02:15:57.605Z,3.08
2018-03-22T02:16:57.586Z,3.07
2018-03-22T02:17:57.611Z,3.09
2018-03-22T02:18:57.594Z,3.08
2018-03-22T02:19:57.587Z,3.11
2018-03-22T02:20:57.588Z,3.09
2018-03-22T02:21:57.594Z,3.09
2018-03-22T02:22:57.594Z,3.09
2018-03-22T02:23:57.639Z,3.11
2018-03-22T02:24:57.636Z,3.11
2018-03-22T02:25:57.617Z,3.11
2018-03-22T02:26:57.599Z,3.11
2018-03-22T02:27:57.602Z,3.12
2018-03-22T02:28:57.599Z,3.12
2018-03-22T02:29:57.599Z,3.14
2018-03-22T02:30:57.625Z,3.14
2018-03-22T02:31:57.615Z,3.14
2018-03-22T02:32:57.618Z,3.15
2018-03-22T02:33:57.612Z,3.17
2018-03-22T02:34:57.644Z,3.17
2018-03-22T02:35:57.612Z,3.20
2018-03-22T02:36:59.712Z,3.22
2018-03-22T02:37:57.613Z,3.22
2018-03-22T02:38:57.664Z,3.22
2018-03-22T02:39:57.614Z,3.23
2018-03-22T02:40:58.706Z,3.25
2018-03-22T02:41:57.621Z,3.23
2018-03-22T02:42:57.621Z,3.22
2018-03-22T02:43:57.618Z,3.23
2018-03-22T02:44:57.716Z,3.22
2018-03-22T02:45:57.627Z,3.22
2018-03-22T02:46:57.726Z,3.23
2018-03-22T02:47:57.627Z,3.22
2018-03-22T02:48:57.740Z,3.22
2018-03-22T02:49:57.634Z,3.23
2018-03-22T02:50:57.632Z,3.23
2018-03-22T02:51:57.638Z,3.25
2018-03-22T02:52:57.642Z,3.25
2018-03-22T02:53:57.643Z,3.25
2018-03-22T02:54:57.639Z,3.25
2018-03-22T02:55:57.646Z,3.26
2018-03-22T02:56:57.646Z,3.25
2018-03-22T02:57:57.654Z,3.26
2018-03-22T02:58:57.639Z,3.26
2018-03-22T02:59:57.712Z,3.25
2018-03-22T03:00:57.650Z,3.27
2018-03-22T03:01:57.773Z,3.25
2018-03-22T03:02:57.661Z,3.26
2018-03-22T03:03:57.657Z,3.26
2018-03-22T03:04:57.656Z,3.25
2018-03-22T03:05:57.654Z,3.26
2018-03-22T03:06:57.657Z,3.26
2018-03-22T03:07:57.660Z,3.26
2018-03-22T03:08:57.652Z,3.27
2018-03-22T03:09:57.655Z,3.27
2018-03-22T03:10:57.691Z,3.26
2018-03-22T03:11:57.675Z,3.29
2018-03-22T03:12:57.669Z,3.27
2018-03-22T03:13:57.713Z,3.27
2018-03-22T03:14:57.665Z,3.27
2018-03-22T03:15:57.723Z,3.29
2018-03-22T03:16:57.679Z,3.29
2018-03-22T03:17:57.738Z,3.29
2018-03-22T03:18:57.675Z,3.29
2018-03-22T03:19:57.748Z,3.29
2018-03-22T03:20:57.672Z,3.30
2018-03-22T03:21:57.678Z,3.29
2018-03-22T03:22:57.677Z,3.29
2018-03-22T03:23:57.676Z,3.29
2018-03-22T03:24:57.683Z,3.29
2018-03-22T03:25:57.686Z,3.27
2018-03-22T03:26:57.697Z,3.32
2018-03-22T03:27:57.688Z,3.29
2018-03-22T03:28:57.681Z,3.30
2018-03-22T03:29:57.683Z,3.30
2018-03-22T03:30:57.704Z,3.30
2018-03-22T03:31:57.728Z,3.29
2018-03-22T03:32:57.690Z,3.30
2018-03-22T03:33:57.750Z,3.32
2018-03-22T03:34:57.705Z,3.30
2018-03-22T03:35:57.721Z,3.30
2018-03-22T03:36:57.777Z,3.30
2018-03-22T03:37:57.701Z,3.30
2018-03-22T03:38:57.694Z,3.32
2018-03-22T03:39:57.709Z,3.30
2018-03-22T03:40:57.786Z,3.30
2018-03-22T03:41:57.706Z,3.30
2018-03-22T03:42:57.703Z,3.30
2018-03-22T03:43:57.807Z,3.29
2018-03-22T03:44:57.707Z,3.30
2018-03-22T03:45:57.705Z,3.30
2018-03-22T03:46:57.717Z,3.30
2018-03-22T03:47:57.707Z,3.30
2018-03-22T03:48:57.733Z,3.30
2018-03-22T03:49:57.712Z,3.29
2018-03-22T03:50:57.726Z,3.30
2018-03-22T03:51:57.770Z,3.32
2018-03-22T03:52:57.713Z,3.30
2018-03-22T03:53:57.779Z,3.30
2018-03-22T03:54:57.730Z,3.29
2018-03-22T03:55:57.791Z,3.29
2018-03-22T03:56:57.727Z,3.29
2018-03-22T03:57:57.795Z,3.27
2018-03-22T03:58:57.719Z,3.29
2018-03-22T03:59:58.834Z,3.29
2018-03-22T04:00:57.725Z,3.26
2018-03-22T04:01:57.818Z,3.25
2018-03-22T04:02:57.730Z,3.25
2018-03-22T04:03:57.741Z,3.26
2018-03-22T04:04:57.816Z,3.25
2018-03-22T04:05:57.736Z,3.25
2018-03-22T04:06:57.838Z,3.23
2018-03-22T04:07:57.733Z,3.23
2018-03-22T04:08:57.843Z,3.25
2018-03-22T04:09:57.741Z,3.23
2018-03-22T04:10:57.862Z,3.23
2018-03-22T04:11:57.746Z,3.23
2018-03-22T04:12:57.782Z,3.23
2018-03-22T04:13:57.748Z,3.23
2018-03-22T04:14:58.808Z,3.22
2018-03-22T04:15:57.785Z,3.23
2018-03-22T04:16:57.799Z,3.23
2018-03-22T04:17:57.748Z,3.23
2018-03-22T04:18:57.752Z,3.22
2018-03-22T04:19:57.836Z,3.22
2018-03-22T04:20:57.757Z,3.22
2018-03-22T04:21:57.832Z,3.23
2018-03-22T04:22:57.760Z,3.22
2018-03-22T04:23:57.857Z,3.22
2018-03-22T04:24:57.763Z,3.22
2018-03-22T04:25:57.870Z,3.22
2018-03-22T04:26:57.778Z,3.22
2018-03-22T04:27:57.766Z,3.22
2018-03-22T04:28:57.902Z,3.23
2018-03-22T04:29:57.772Z,3.22
2018-03-22T04:30:57.768Z,3.22
2018-03-22T04:31:57.810Z,3.22
2018-03-22T04:32:57.772Z,3.22
2018-03-22T04:33:57.822Z,3.22
2018-03-22T04:34:57.788Z,3.20
2018-03-22T04:35:57.778Z,3.20
2018-03-22T04:36:57.783Z,3.18
2018-03-22T04:37:57.778Z,3.20
2018-03-22T04:38:57.776Z,3.18
2018-03-22T04:39:57.781Z,3.20
2018-03-22T04:40:57.774Z,3.18
2018-03-22T04:41:57.874Z,3.18
2018-03-22T04:42:57.811Z,3.17
2018-03-22T04:43:57.798Z,3.18
2018-03-22T04:44:57.789Z,3.15
2018-03-22T04:45:57.793Z,3.17
2018-03-22T04:46:57.814Z,3.17
2018-03-22T04:47:57.788Z,3.17
2018-03-22T04:48:57.796Z,3.15
2018-03-22T04:49:57.797Z,3.14
2018-03-22T04:50:57.834Z,3.14
2018-03-22T04:51:57.795Z,3.15
2018-03-22T04:52:57.799Z,3.14
2018-03-22T04:53:57.858Z,3.15
2018-03-22T04:54:57.816Z,3.14
2018-03-22T04:55:57.874Z,3.15
2018-03-22T04:56:57.804Z,3.15
2018-03-22T04:57:57.929Z,3.14
2018-03-22T04:58:57.802Z,3.14
2018-03-22T04:59:57.900Z,3.14
2018-03-22T05:00:57.802Z,3.12
2018-03-22T05:01:57.809Z,3.12
2018-03-22T05:02:57.813Z,3.14
2018-03-22T05:03:57.811Z,3.14
2018-03-22T05:04:57.831Z,3.14
2018-03-22T05:05:57.812Z,3.14
2018-03-22T05:06:57.899Z,3.14
2018-03-22T05:07:57.818Z,3.14
2018-03-22T05:08:57.831Z,3.14
2018-03-22T05:09:57.862Z,3.12
2018-03-22T05:10:57.836Z,3.12
2018-03-22T05:11:57.838Z,3.14
2018-03-22T05:12:57.854Z,3.12
2018-03-22T05:13:57.818Z,3.12
2018-03-22T05:14:57.826Z,3.12
2018-03-22T05:15:57.912Z,3.11
2018-03-22T05:16:57.822Z,3.11
2018-03-22T05:17:57.915Z,3.11
2018-03-22T05:18:57.824Z,3.11
2018-03-22T05:19:57.933Z,3.09
2018-03-22T05:20:57.838Z,3.11
2018-03-22T05:21:57.968Z,3.09
2018-03-22T05:22:57.839Z,3.09
2018-03-22T05:23:57.857Z,3.09
2018-03-22T05:24:57.881Z,3.09
2018-03-22T05:25:58.901Z,3.07
2018-03-22T05:26:57.843Z,3.08
2018-03-22T05:27:57.883Z,3.07
2018-03-22T05:28:57.844Z,3.07
2018-03-22T05:29:57.899Z,3.05
2018-03-22T05:30:57.842Z,3.05
2018-03-22T05:31:57.846Z,3.05
2018-03-22T05:32:57.914Z,3.04
2018-03-22T05:33:57.868Z,3.04
2018-03-22T05:34:57.896Z,3.04
2018-03-22T05:35:57.853Z,3.05
2018-03-22T05:36:57.910Z,3.04
2018-03-22T05:37:57.875Z,3.02
2018-03-22T05:38:57.925Z,3.04
2018-03-22T05:39:57.857Z,3.04
2018-03-22T05:40:57.859Z,3.02
2018-03-22T05:41:57.941Z,3.02
2018-03-22T05:42:57.864Z,3.02
2018-03-22T05:43:57.952Z,3.00
2018-03-22T05:44:57.899Z,3.02
2018-03-22T05:45:57.865Z,3.02
2018-03-22T05:46:57.868Z,3.02
2018-03-22T05:47:57.874Z,3.02
2018-03-22T05:48:57.905Z,3.00
2018-03-22T05:49:59.940Z,3.02
2018-03-22T05:50:57.866Z,3.02
2018-03-22T05:51:57.904Z,3.00
2018-03-22T05:52:57.934Z,3.02
2018-03-22T05:53:57.883Z,3.00
2018-03-22T05:54:57.928Z,3.02
2018-03-22T05:55:57.878Z,3.02
2018-03-22T05:56:58.966Z,3.04
2018-03-22T05:57:57.904Z,3.02
2018-03-22T05:58:57.970Z,3.04
2018-03-22T05:59:57.880Z,3.04
2018-03-22T06:00:58.005Z,3.04
2018-03-22T06:01:57.887Z,3.04
2018-03-22T06:02:57.992Z,3.04
2018-03-22T06:03:57.897Z,3.05
2018-03-22T06:04:58.021Z,3.04
2018-03-22T06:05:57.889Z,3.04
2018-03-22T06:06:57.899Z,3.04
2018-03-22T06:07:57.914Z,3.04
2018-03-22T06:08:57.918Z,3.04
2018-03-22T06:09:57.888Z,3.05
2018-03-22T06:10:57.893Z,3.05
2018-03-22T06:11:57.898Z,3.05
2018-03-22T06:12:57.902Z,3.05
2018-03-22T06:13:57.907Z,3.05
2018-03-22T06:14:57.905Z,3.05
2018-03-22T06:15:57.916Z,3.04
2018-03-22T06:16:57.901Z,3.04
2018-03-22T06:17:57.907Z,3.05
2018-03-22T06:18:57.913Z,3.05
2018-03-22T06:19:57.919Z,3.07
2018-03-22T06:20:57.906Z,3.05
2018-03-22T06:21:57.913Z,3.05
2018-03-22T06:22:57.922Z,3.07
2018-03-22T06:23:57.924Z,3.07
2018-03-22T06:24:57.971Z,3.07
2018-03-22T06:25:57.921Z,3.07
2018-03-22T06:26:58.010Z,3.07
2018-03-22T06:27:57.917Z,3.08
2018-03-22T06:28:58.027Z,3.08
2018-03-22T06:29:57.929Z,3.08
2018-03-22T06:30:57.977Z,3.08
2018-03-22T06:31:57.926Z,3.08
2018-03-22T06:32:58.983Z,3.08
2018-03-22T06:33:57.922Z,3.08
2018-03-22T06:34:57.978Z,3.08
2018-03-22T06:35:57.921Z,3.08
2018-03-22T06:36:57.942Z,3.09
2018-03-22T06:37:57.953Z,3.09
2018-03-22T06:38:57.935Z,3.09
2018-03-22T06:39:57.931Z,3.11
2018-03-22T06:40:57.942Z,3.09
2018-03-22T06:41:57.941Z,3.11
2018-03-22T06:42:58.033Z,3.12
2018-03-22T06:43:57.940Z,3.11
2018-03-22T06:44:58.986Z,3.11
2018-03-22T06:45:57.943Z,3.12
2018-03-22T06:46:57.944Z,3.11
2018-03-22T06:47:57.962Z,3.12
2018-03-22T06:48:57.946Z,3.11
2018-03-22T06:49:57.947Z,3.12
2018-03-22T06:50:59.009Z,3.12
2018-03-22T06:51:57.966Z,3.12
2018-03-22T06:52:59.022Z,3.12
2018-03-22T06:53:57.951Z,3.12
2018-03-22T06:54:59.033Z,3.11
2018-03-22T06:55:57.955Z,3.12
2018-03-22T06:56:58.128Z,3.12
2018-03-22T06:57:57.947Z,3.12
2018-03-22T06:58:58.135Z,3.12
2018-03-22T06:59:57.958Z,3.12
2018-03-22T07:00:57.967Z,3.11
2018-03-22T07:01:58.050Z,3.12
2018-03-22T07:02:57.962Z,3.11
2018-03-22T07:03:58.067Z,3.11
2018-03-22T07:04:57.964Z,3.11
2018-03-22T07:05:58.078Z,3.11
2018-03-22T07:06:58.010Z,3.11
2018-03-22T07:07:57.993Z,3.12
2018-03-22T07:08:57.977Z,3.11
2018-03-22T07:09:58.005Z,3.11
2018-03-22T07:10:57.975Z,3.12
2018-03-22T07:11:57.966Z,3.11
2018-03-22T07:12:57.980Z,3.12
2018-03-22T07:13:57.972Z,3.12
2018-03-22T07:14:57.976Z,3.11
2018-03-22T07:15:57.975Z,3.14
2018-03-22T07:17:00.098Z,3.12
2018-03-22T07:17:57.982Z,3.12
2018-03-22T07:18:57.979Z,3.12
2018-03-22T07:19:57.991Z,3.14
2018-03-22T07:20:57.996Z,3.15
2018-03-22T07:21:58.075Z,3.15
2018-03-22T07:22:58.013Z,3.15
2018-03-22T07:23:58.098Z,3.17
2018-03-22T07:24:58.002Z,3.17
2018-03-22T07:25:58.024Z,3.17
2018-03-22T07:26:57.990Z,3.17
2018-03-22T07:27:58.018Z,3.17
2018-03-22T07:28:58.000Z,3.15
2018-03-22T07:29:58.018Z,3.17
2018-03-22T07:30:57.997Z,3.15
2018-03-22T07:31:57.996Z,3.15
2018-03-22T07:32:58.025Z,3.14
2018-03-22T07:33:57.997Z,3.15
2018-03-22T07:34:58.000Z,3.15
2018-03-22T07:35:58.072Z,3.15
2018-03-22T07:36:58.004Z,3.14
2018-03-22T07:37:58.008Z,3.15
2018-03-22T07:38:58.012Z,3.14
2018-03-22T07:39:58.004Z,3.15
2018-03-22T07:40:58.008Z,3.15
2018-03-22T07:41:58.013Z,3.14
2018-03-22T07:42:58.024Z,3.15
2018-03-22T07:43:58.131Z,3.17
2018-03-22T07:44:58.014Z,3.17
2018-03-22T07:45:58.034Z,3.18
2018-03-22T07:46:58.016Z,3.18
2018-03-22T07:47:58.017Z,3.20
2018-03-22T07:48:58.021Z,3.23
2018-03-22T07:49:58.069Z,3.22
2018-03-22T07:50:58.026Z,3.23
2018-03-22T07:52:00.129Z,3.25
2018-03-22T07:52:58.020Z,3.25
2018-03-22T07:53:58.094Z,3.25
2018-03-22T07:54:58.026Z,3.23
2018-03-22T07:55:58.130Z,3.27
2018-03-22T07:56:58.034Z,3.27
2018-03-22T07:57:58.035Z,3.26
2018-03-22T07:58:58.197Z,3.29
2018-03-22T07:59:58.031Z,3.29
2018-03-22T08:00:58.147Z,3.30
2018-03-22T08:01:58.032Z,3.29
2018-03-22T08:02:58.057Z,3.30
2018-03-22T08:03:58.037Z,3.30
2018-03-22T08:04:58.082Z,3.30
2018-03-22T08:05:58.050Z,3.30
2018-03-22T08:06:58.083Z,3.32
2018-03-22T08:07:58.043Z,3.33
2018-03-22T08:08:58.050Z,3.33
2018-03-22T08:09:58.048Z,3.35
2018-03-22T08:10:58.118Z,3.36
2018-03-22T08:11:58.062Z,3.37
2018-03-22T08:12:58.045Z,3.37
2018-03-22T08:13:58.047Z,3.41
2018-03-22T08:14:58.054Z,3.41
2018-03-22T08:15:58.050Z,3.42
2018-03-22T08:16:58.056Z,3.42
2018-03-22T08:17:58.061Z,3.44
2018-03-22T08:18:59.179Z,3.44
2018-03-22T08:19:58.077Z,3.45
2018-03-22T08:20:58.081Z,3.46
2018-03-22T08:21:58.061Z,3.49
2018-03-22T08:22:58.069Z,3.51
2018-03-22T08:23:58.068Z,3.52
2018-03-22T08:24:58.064Z,3.52
2018-03-22T08:25:58.144Z,3.54
2018-03-22T08:26:58.221Z,3.55
2018-03-22T08:27:58.071Z,3.55
2018-03-22T08:28:58.069Z,3.56
2018-03-22T08:29:58.076Z,3.56
2018-03-22T08:30:58.064Z,3.59
2018-03-22T08:31:58.068Z,3.59
2018-03-22T08:32:58.072Z,3.60
2018-03-22T08:33:58.072Z,3.62
2018-03-22T08:34:58.078Z,3.62
2018-03-22T08:35:58.095Z,3.63
2018-03-22T08:36:58.093Z,3.64
2018-03-22T08:37:58.199Z,3.64
2018-03-22T08:38:58.082Z,3.64
2018-03-22T08:39:58.088Z,3.66
2018-03-22T08:40:58.089Z,3.67
2018-03-22T08:41:58.109Z,3.67
2018-03-22T08:42:58.087Z,3.69
2018-03-22T08:43:58.128Z,3.72
2018-03-22T08:44:58.088Z,3.72
2018-03-22T08:45:59.146Z,3.72
2018-03-22T08:46:58.096Z,3.72
2018-03-22T08:47:58.094Z,3.70
2018-03-22T08:48:58.133Z,3.70
2018-03-22T08:49:58.097Z,3.72
2018-03-22T08:50:58.146Z,3.72
2018-03-22T08:51:58.137Z,3.73
2018-03-22T08:52:58.098Z,3.73
2018-03-22T08:53:59.196Z,3.73
2018-03-22T08:54:58.111Z,3.72
2018-03-22T08:55:58.179Z,3.74
2018-03-22T08:56:58.097Z,3.74
2018-03-22T08:57:58.191Z,3.74
2018-03-22T08:58:58.118Z,3.76
2018-03-22T08:59:58.210Z,3.78
2018-03-22T09:00:58.120Z,3.80
2018-03-22T09:01:58.224Z,3.81
2018-03-22T09:02:58.123Z,3.81
2018-03-22T09:03:58.164Z,3.82
2018-03-22T09:04:58.146Z,3.84
2018-03-22T09:05:58.115Z,3.87
2018-03-22T09:06:58.152Z,3.90
2018-03-22T09:07:58.119Z,3.94
2018-03-22T09:08:58.166Z,3.96
2018-03-22T09:09:58.114Z,3.98
2018-03-22T09:10:58.224Z,4.00
2018-03-22T09:11:58.145Z,4.03
2018-03-22T09:12:58.193Z,4.08
2018-03-22T09:13:58.135Z,4.09
2018-03-22T09:14:58.204Z,4.13
2018-03-22T09:15:58.128Z,4.17
2018-03-22T09:16:58.218Z,4.20
2018-03-22T09:17:58.130Z,4.23
2018-03-22T09:18:58.233Z,4.24
2018-03-22T09:19:58.134Z,4.26
2018-03-22T09:20:58.138Z,4.27
2018-03-22T09:21:58.255Z,4.27
2018-03-22T09:22:58.134Z,4.28
2018-03-22T09:23:58.166Z,4.30
2018-03-22T09:24:58.139Z,4.31
2018-03-22T09:25:58.181Z,4.31
2018-03-22T09:26:58.144Z,4.31
2018-03-22T09:27:58.192Z,4.31
2018-03-22T09:28:58.153Z,4.31
2018-03-22T09:29:59.232Z,4.31
2018-03-22T09:30:58.145Z,4.34
2018-03-22T09:31:58.222Z,4.34
2018-03-22T09:32:58.154Z,4.34
2018-03-22T09:33:58.157Z,4.34
2018-03-22T09:34:58.153Z,4.30
2018-03-22T09:35:58.244Z,4.34
2018-03-22T09:36:58.173Z,4.34
2018-03-22T09:37:58.256Z,4.34
2018-03-22T09:38:58.177Z,4.35
2018-03-22T09:39:58.171Z,4.36
2018-03-22T09:40:58.208Z,4.39
2018-03-22T09:41:58.196Z,4.42
2018-03-22T09:42:58.181Z,4.48
2018-03-22T09:43:58.241Z,4.53
2018-03-22T09:44:58.166Z,4.59
2018-03-22T09:45:58.220Z,4.66
2018-03-22T09:46:58.165Z,4.69
2018-03-22T09:47:59.248Z,4.77
2018-03-22T09:48:58.162Z,4.82
2018-03-22T09:49:58.245Z,4.86
2018-03-22T09:50:58.169Z,4.91
2018-03-22T09:51:58.277Z,4.93
2018-03-22T09:52:58.180Z,4.94
2018-03-22T09:53:58.271Z,4.96
2018-03-22T09:54:58.177Z,4.94
2018-03-22T09:55:58.276Z,4.94
2018-03-22T09:56:58.182Z,4.94
2018-03-22T09:57:58.218Z,4.94
2018-03-22T09:58:58.188Z,4.93
2018-03-22T09:59:58.222Z,4.94
2018-03-22T10:00:58.184Z,4.94
2018-03-22T10:01:58.179Z,4.96
2018-03-22T10:02:58.187Z,4.97
2018-03-22T10:03:58.188Z,4.97
2018-03-22T10:04:58.258Z,4.98
2018-03-22T10:05:58.208Z,5.00
2018-03-22T10:06:58.276Z,5.03
2018-03-22T10:07:58.190Z,5.04
2018-03-22T10:08:58.196Z,5.07
2018-03-22T10:09:58.192Z,5.11
2018-03-22T10:10:58.196Z,5.11
2018-03-22T10:11:58.201Z,5.15
2018-03-22T10:12:58.206Z,5.16
2018-03-22T10:13:58.208Z,5.19
2018-03-22T10:14:58.307Z,5.21
2018-03-22T10:15:58.198Z,5.24
2018-03-22T10:16:58.209Z,5.25
2018-03-22T10:17:58.240Z,5.27
2018-03-22T10:18:58.216Z,5.32
2018-03-22T10:19:58.211Z,5.39
2018-03-22T10:20:58.204Z,5.47
2018-03-22T10:21:58.247Z,5.50
2018-03-22T10:22:58.222Z,5.51
2018-03-22T10:23:58.212Z,5.51
2018-03-22T10:24:58.208Z,5.51
2018-03-22T10:25:58.212Z,5.51
2018-03-22T10:26:58.218Z,5.50
2018-03-22T10:27:58.216Z,5.51
2018-03-22T10:28:58.302Z,5.50
2018-03-22T10:29:58.218Z,5.50
2018-03-22T10:30:58.227Z,5.52
2018-03-22T10:31:58.231Z,5.57
2018-03-22T10:32:58.232Z,5.57
2018-03-22T10:33:58.231Z,5.58
2018-03-22T10:34:58.433Z,5.59
2018-03-22T10:35:58.297Z,5.59
2018-03-22T10:36:58.239Z,5.61
2018-03-22T10:37:58.233Z,5.62
2018-03-22T10:38:58.236Z,5.61
2018-03-22T10:39:58.235Z,5.61
2018-03-22T10:40:58.239Z,5.61
2018-03-22T10:41:58.286Z,5.62
2018-03-22T10:42:58.242Z,5.65
2018-03-22T10:43:58.243Z,5.67
2018-03-22T10:44:58.242Z,5.70
2018-03-22T10:45:58.240Z,5.70
2018-03-22T10:46:58.244Z,5.73
2018-03-22T10:47:58.305Z,5.75
2018-03-22T10:48:58.245Z,5.76
2018-03-22T10:49:59.343Z,5.79
2018-03-22T10:50:58.298Z,5.84
2018-03-22T10:51:58.324Z,5.90
2018-03-22T10:52:58.252Z,5.94
2018-03-22T10:53:58.342Z,5.94
2018-03-22T10:54:58.252Z,5.97
2018-03-22T10:55:58.255Z,5.97
2018-03-22T10:56:58.267Z,6.00
2018-03-22T10:57:58.352Z,6.02
2018-03-22T10:58:58.260Z,6.02
2018-03-22T10:59:58.369Z,6.02
2018-03-22T11:00:58.266Z,6.02
2018-03-22T11:01:58.377Z,6.03
2018-03-22T11:02:58.270Z,6.03
2018-03-22T11:03:58.290Z,6.08
2018-03-22T11:04:58.266Z,6.11
2018-03-22T11:05:58.278Z,6.13
2018-03-22T11:06:58.272Z,6.15
2018-03-22T11:07:58.314Z,6.18
2018-03-22T11:08:58.273Z,6.18
2018-03-22T11:09:58.276Z,6.19
2018-03-22T11:10:58.284Z,6.19
2018-03-22T11:11:58.335Z,6.19
2018-03-22T11:12:58.286Z,6.19
2018-03-22T11:13:58.349Z,6.24
2018-03-22T11:14:58.282Z,6.25
2018-03-22T11:15:58.366Z,6.30
2018-03-22T11:16:58.287Z,6.32
2018-03-22T11:18:01.006Z,6.38
2018-03-22T11:19:00.015Z,6.42
2018-03-22T11:19:58.301Z,6.45
2018-03-22T11:21:00.012Z,6.45
2018-03-22T11:21:58.407Z,6.45
2018-03-22T11:23:00.253Z,6.45
2018-03-22T11:24:01.003Z,6.46
2018-03-22T11:24:58.325Z,6.46
2018-03-22T11:25:58.324Z,6.49
2018-03-22T11:26:58.335Z,6.52
2018-03-22T11:27:58.297Z,6.55
2018-03-22T11:28:58.300Z,6.57
2018-03-22T11:29:58.357Z,6.63
2018-03-22T11:30:58.317Z,6.64
2018-03-22T11:31:58.369Z,6.68
2018-03-22T11:32:58.310Z,6.75
2018-03-22T11:33:58.370Z,6.88
2018-03-22T11:34:58.326Z,7.00
2018-03-22T11:35:58.386Z,7.13
2018-03-22T11:36:58.319Z,7.24
2018-03-22T11:37:58.400Z,7.31
2018-03-22T11:38:58.322Z,7.34
2018-03-22T11:39:58.416Z,7.34
2018-03-22T11:40:58.323Z,7.31
2018-03-22T11:41:58.427Z,7.26
2018-03-22T11:42:58.336Z,7.24
2018-03-22T11:43:58.444Z,7.19
2018-03-22T11:44:58.332Z,7.19
2018-03-22T11:45:58.420Z,7.18
2018-03-22T11:46:58.328Z,7.19
2018-03-22T11:47:58.368Z,7.19
2018-03-22T11:48:58.332Z,7.16
2018-03-22T11:49:58.384Z,7.13
2018-03-22T11:50:58.345Z,7.07
2018-03-22T11:51:58.395Z,7.01
2018-03-22T11:52:58.341Z,6.97
2018-03-22T11:53:58.403Z,6.91
2018-03-22T11:54:58.348Z,6.85
2018-03-22T11:55:58.418Z,6.82
2018-03-22T11:56:58.363Z,6.78
2018-03-22T11:57:58.434Z,6.74
2018-03-22T11:58:58.349Z,6.71
2018-03-22T11:59:58.354Z,6.67
2018-03-22T12:00:58.353Z,6.64
2018-03-22T12:01:59.422Z,6.63
2018-03-22T12:02:58.359Z,6.61
2018-03-22T12:03:58.370Z,6.60
2018-03-22T12:04:58.372Z,6.57
2018-03-22T12:05:59.407Z,6.55
2018-03-22T12:06:58.368Z,6.53
2018-03-22T12:07:58.396Z,6.53
2018-03-22T12:08:58.373Z,6.53
2018-03-22T12:09:58.410Z,6.52
2018-03-22T12:10:58.367Z,6.50
2018-03-22T12:11:58.429Z,6.49
2018-03-22T12:12:58.371Z,6.47
2018-03-22T12:13:58.372Z,6.46
2018-03-22T12:14:58.392Z,6.45
2018-03-22T12:15:58.452Z,6.43
2018-03-22T12:16:58.374Z,6.43
2018-03-22T12:17:58.467Z,6.45
2018-03-22T12:18:58.382Z,6.49
2018-03-22T12:19:58.384Z,6.52
2018-03-22T12:20:58.393Z,6.55
2018-03-22T12:21:58.489Z,6.57
2018-03-22T12:22:58.392Z,6.65
2018-03-22T12:23:58.406Z,6.74
2018-03-22T12:24:58.398Z,6.82
2018-03-22T12:25:58.421Z,6.93
2018-03-22T12:26:58.391Z,7.06
2018-03-22T12:27:58.446Z,7.19
2018-03-22T12:28:58.396Z,7.31
2018-03-22T12:29:58.447Z,7.39
2018-03-22T12:30:58.408Z,7.49
2018-03-22T12:31:58.474Z,7.55
2018-03-22T12:32:58.405Z,7.60
2018-03-22T12:33:58.473Z,7.64
2018-03-22T12:34:58.408Z,7.71
2018-03-22T12:35:59.519Z,7.76
2018-03-22T12:36:58.417Z,7.83
2018-03-22T12:37:58.501Z,7.92
2018-03-22T12:38:58.422Z,8.01
2018-03-22T12:39:58.518Z,8.09
2018-03-22T12:40:58.430Z,8.19
2018-03-22T12:41:58.533Z,8.29
2018-03-22T12:42:58.423Z,8.37
2018-03-22T12:43:58.440Z,8.41
2018-03-22T12:44:58.426Z,8.46
2018-03-22T12:45:58.433Z,8.49
2018-03-22T12:46:58.477Z,8.55
2018-03-22T12:47:58.471Z,8.60
2018-03-22T12:48:58.428Z,8.70
2018-03-22T12:49:58.477Z,8.77
2018-03-22T12:50:58.442Z,8.86
2018-03-22T12:51:58.492Z,8.95
2018-03-22T12:52:58.437Z,9.01
2018-03-22T12:53:58.519Z,9.06
2018-03-22T12:54:58.449Z,9.11
2018-03-22T12:55:58.523Z,9.14
2018-03-22T12:56:58.450Z,9.14
2018-03-22T12:57:58.548Z,9.06
2018-03-22T12:58:58.451Z,8.96
2018-03-22T12:59:58.558Z,8.90
2018-03-22T13:00:58.457Z,8.80
2018-03-22T13:01:58.561Z,8.70
2018-03-22T13:02:58.466Z,8.59
2018-03-22T13:03:58.473Z,8.50
2018-03-22T13:04:58.463Z,8.41
2018-03-22T13:05:58.544Z,8.34
2018-03-22T13:06:58.462Z,8.26
2018-03-22T13:08:03.067Z,8.19
2018-03-22T13:08:58.472Z,8.16
2018-03-22T13:09:58.568Z,8.13
2018-03-22T13:10:58.472Z,8.12
2018-03-22T13:11:58.605Z,8.10
2018-03-22T13:12:58.506Z,8.06
2018-03-22T13:13:58.483Z,8.05
2018-03-22T13:14:58.508Z,8.04
2018-03-22T13:15:58.486Z,8.01
2018-03-22T13:16:58.520Z,8.01
2018-03-22T13:17:58.487Z,8.01
2018-03-22T13:18:58.529Z,8.04